createdAt,value
2023-02-07T00:02:50.454Z,13.50
2023-02-07T00:07:53.178Z,15.60
2023-02-07T00:12:56.118Z,16.95
2023-02-07T00:17:58.979Z,20.00
2023-02-07T00:23:02.106Z,18.02
2023-02-07T00:28:05.382Z,17.65
2023-02-07T00:33:08.496Z,10.63
2023-02-07T00:38:11.751Z,11.15
2023-02-07T00:43:28.142Z,8.60
2023-02-07T00:48:33.504Z,10.90
2023-02-07T00:53:36.717Z,10.85
2023-02-07T00:58:39.584Z,11.27
2023-02-07T01:03:42.498Z,15.05
2023-02-07T01:08:46.924Z,10.85
2023-02-07T01:13:51.187Z,16.08
2023-02-07T01:18:55.029Z,12.52
2023-02-07T01:23:57.966Z,8.00
2023-02-07T01:29:01.058Z,7.65
2023-02-07T01:34:05.677Z,14.55
2023-02-07T01:39:08.742Z,15.00
2023-02-07T01:44:23.903Z,5.38
2023-02-07T01:49:33.097Z,13.00
2023-02-07T01:54:37.080Z,9.18
2023-02-07T01:59:44.315Z,8.25
2023-02-07T02:04:47.344Z,8.90
2023-02-07T02:09:50.440Z,6.40
2023-02-07T02:15:11.716Z,10.23
2023-02-07T02:20:38.124Z,12.27
2023-02-07T02:26:38.290Z,9.20
2023-02-07T02:32:06.656Z,8.90
2023-02-07T02:37:23.674Z,18.23
2023-02-07T02:42:40.470Z,15.07
2023-02-07T02:47:47.278Z,7.82
2023-02-07T02:52:51.396Z,8.63
2023-02-07T02:58:34.458Z,5.30
2023-02-07T03:03:56.037Z,5.68
2023-02-07T03:09:17.813Z,7.75
2023-02-07T03:14:32.226Z,11.70
2023-02-07T03:19:50.032Z,11.05
2023-02-07T03:24:56.893Z,4.57
2023-02-07T03:30:08.147Z,11.00
2023-02-07T03:35:14.821Z,7.38
2023-02-07T03:40:18.478Z,7.22
2023-02-07T03:45:22.219Z,7.50
2023-02-07T03:50:25.041Z,9.57
2023-02-07T03:55:28.260Z,9.30
2023-02-07T04:00:31.275Z,8.00
2023-02-07T04:05:34.519Z,9.50
2023-02-07T04:10:37.475Z,7.63
2023-02-07T04:15:40.550Z,8.35
2023-02-07T04:20:44.262Z,8.25
2023-02-07T04:25:47.175Z,6.80
2023-02-07T04:30:50.605Z,7.05
2023-02-07T04:35:59.207Z,8.52
2023-02-07T04:41:04.601Z,9.73
2023-02-07T04:46:08.296Z,8.25
2023-02-07T04:51:12.691Z,15.85
2023-02-07T04:56:15.874Z,9.50
2023-02-07T05:01:19.477Z,9.00
2023-02-07T05:06:22.823Z,15.75
2023-02-07T05:11:25.728Z,9.20
2023-02-07T05:16:28.640Z,11.48
2023-02-07T05:21:31.544Z,9.98
2023-02-07T05:26:34.419Z,10.07
2023-02-07T05:31:56.200Z,8.68
2023-02-07T05:36:59.024Z,15.18
2023-02-07T05:42:02.126Z,8.65
2023-02-07T05:47:05.182Z,8.70
2023-02-07T05:52:08.098Z,9.48
2023-02-07T05:57:11.102Z,8.68
2023-02-07T06:02:14.146Z,9.15
2023-02-07T06:07:17.043Z,9.75
2023-02-07T06:12:19.904Z,7.28
2023-02-07T06:17:22.950Z,8.98
2023-02-07T06:22:26.304Z,8.65
2023-02-07T06:27:29.164Z,15.23
2023-02-07T06:32:34.217Z,14.45
2023-02-07T06:37:37.694Z,10.70
2023-02-07T06:42:40.803Z,7.07
2023-02-07T06:47:43.741Z,9.90
2023-02-07T06:52:47.023Z,14.13
2023-02-07T06:57:49.889Z,9.48
2023-02-07T07:02:53.305Z,8.07
2023-02-07T07:07:56.925Z,7.65
2023-02-07T07:12:59.862Z,9.77
2023-02-07T07:18:02.828Z,8.00
2023-02-07T07:23:05.968Z,5.57
2023-02-07T07:28:09.257Z,11.98
2023-02-07T07:33:12.116Z,7.85
2023-02-07T07:38:14.976Z,12.35
2023-02-07T07:43:17.840Z,11.45
2023-02-07T07:48:23.513Z,7.72
2023-02-07T07:53:26.430Z,8.52
2023-02-07T07:58:29.550Z,8.52
2023-02-07T08:03:32.724Z,7.28
2023-02-07T08:08:36.100Z,7.32
2023-02-07T08:13:39.518Z,10.50
2023-02-07T08:18:42.970Z,8.05
2023-02-07T08:23:46.014Z,5.95
2023-02-07T08:28:49.989Z,12.70
2023-02-07T08:33:54.072Z,20.40
2023-02-07T08:38:56.962Z,14.02
2023-02-07T08:44:05.167Z,11.32
2023-02-07T08:49:07.940Z,11.13
2023-02-07T08:54:11.000Z,8.20
2023-02-07T08:59:13.837Z,6.20
2023-02-07T09:04:16.963Z,9.63
2023-02-07T09:09:20.035Z,8.13
2023-02-07T09:14:27.918Z,8.65
2023-02-07T09:19:31.558Z,6.93
2023-02-07T09:24:40.646Z,8.65
2023-02-07T09:29:44.446Z,7.28
2023-02-07T09:34:47.471Z,7.88
2023-02-07T09:39:50.734Z,11.40
2023-02-07T09:45:02.806Z,9.88
2023-02-07T09:50:20.936Z,10.38
2023-02-07T10:00:54.153Z,12.52
2023-02-07T10:06:16.918Z,8.48
2023-02-07T10:11:42.109Z,13.85
2023-02-07T10:17:14.036Z,9.52
2023-02-07T10:22:47.748Z,11.63
2023-02-07T10:27:58.841Z,13.07
2023-02-07T10:33:19.045Z,17.85
2023-02-07T10:38:31.503Z,13.02
2023-02-07T10:43:35.977Z,13.63
2023-02-07T10:48:39.962Z,18.83
2023-02-07T10:53:55.787Z,10.80
2023-02-07T10:59:00.420Z,17.27
2023-02-07T11:04:23.710Z,12.10
2023-02-07T11:09:27.404Z,13.85
2023-02-07T11:14:30.368Z,12.40
2023-02-07T11:19:33.451Z,23.05
2023-02-07T11:24:38.151Z,16.27
2023-02-07T11:29:53.821Z,17.23
2023-02-07T11:34:59.628Z,9.15
2023-02-07T11:40:25.453Z,16.20
2023-02-07T11:45:34.684Z,11.20
2023-02-07T11:50:41.347Z,15.48
2023-02-07T11:55:44.636Z,13.75
2023-02-07T12:00:48.713Z,10.02
2023-02-07T12:05:56.027Z,6.90
2023-02-07T12:11:07.656Z,9.27
2023-02-07T12:16:16.197Z,7.55
2023-02-07T12:21:24.609Z,10.77
2023-02-07T12:26:36.123Z,7.82
2023-02-07T12:31:52.085Z,11.00
2023-02-07T12:37:11.783Z,9.45
2023-02-07T12:42:40.720Z,11.45
2023-02-07T12:48:08.207Z,14.30
2023-02-07T12:53:43.697Z,6.97
2023-02-07T12:59:11.095Z,10.30
2023-02-07T13:04:47.116Z,14.40
2023-02-07T13:10:04.361Z,16.60
2023-02-07T13:15:44.525Z,15.65
2023-02-07T13:20:57.962Z,13.73
2023-02-07T13:26:11.183Z,14.52
2023-02-07T13:31:22.054Z,11.48
2023-02-07T13:36:49.600Z,12.15
2023-02-07T13:41:53.376Z,15.90
2023-02-07T13:47:02.078Z,12.80
2023-02-07T13:52:43.506Z,12.55
2023-02-07T13:58:05.253Z,12.93
2023-02-07T14:03:21.618Z,18.10
2023-02-07T14:08:25.379Z,17.30
2023-02-07T14:13:28.056Z,18.95
2023-02-07T14:18:52.021Z,19.85
2023-02-07T14:23:58.487Z,15.68
2023-02-07T14:29:52.762Z,19.15
2023-02-07T14:35:26.216Z,20.02
2023-02-07T14:40:44.423Z,13.02
2023-02-07T14:45:53.220Z,16.75
2023-02-07T14:50:56.024Z,17.02
2023-02-07T14:56:07.185Z,12.77
2023-02-07T15:01:17.682Z,21.75
2023-02-07T15:06:32.019Z,22.48
2023-02-07T15:11:35.669Z,24.77
2023-02-07T15:16:42.091Z,19.50
2023-02-07T15:21:52.032Z,19.25
2023-02-07T15:26:58.488Z,19.33
2023-02-07T15:32:01.934Z,13.45
2023-02-07T15:37:23.476Z,22.08
2023-02-07T15:42:27.012Z,20.88
2023-02-07T15:47:29.746Z,23.35
2023-02-07T15:52:36.176Z,19.42
2023-02-07T15:57:43.396Z,21.00
2023-02-07T16:02:56.517Z,17.08
2023-02-07T16:08:02.065Z,20.27
2023-02-07T16:13:25.848Z,25.13
2023-02-07T16:18:43.471Z,16.20
2023-02-07T16:23:48.575Z,15.55
2023-02-07T16:28:51.858Z,20.13
2023-02-07T16:33:54.758Z,17.63
2023-02-07T16:38:57.758Z,21.25
2023-02-07T16:44:07.584Z,12.82
2023-02-07T16:49:15.794Z,19.20
2023-02-07T16:54:18.940Z,15.15
2023-02-07T16:59:23.592Z,18.73
2023-02-07T17:04:26.319Z,18.58
2023-02-07T17:09:29.226Z,18.42
2023-02-07T17:14:32.227Z,16.25
2023-02-07T17:19:35.017Z,16.55
2023-02-07T17:24:37.937Z,18.33
2023-02-07T17:29:41.439Z,17.35
2023-02-07T17:34:44.325Z,14.57
2023-02-07T17:39:46.936Z,14.65
2023-02-07T17:44:49.640Z,21.85
2023-02-07T17:49:52.338Z,17.10
2023-02-07T17:54:55.323Z,16.73
2023-02-07T17:59:58.167Z,22.65
2023-02-07T18:05:00.889Z,25.50
2023-02-07T18:10:09.917Z,21.08
2023-02-07T18:15:13.312Z,17.23
2023-02-07T18:20:22.645Z,18.45
2023-02-07T18:25:27.559Z,22.40
2023-02-07T18:30:31.365Z,15.40
2023-02-07T18:35:34.364Z,14.50
2023-02-07T18:40:41.949Z,22.08
2023-02-07T18:45:44.998Z,23.20
2023-02-07T18:50:48.463Z,28.85
2023-02-07T18:55:51.187Z,32.83
2023-02-07T19:00:54.164Z,19.85
2023-02-07T19:05:59.046Z,26.08
2023-02-07T19:11:05.416Z,23.77
2023-02-07T19:16:17.975Z,22.10
2023-02-07T19:21:24.114Z,19.10
2023-02-07T19:26:27.204Z,23.42
2023-02-07T19:31:30.058Z,16.00
2023-02-07T19:36:32.957Z,29.67
2023-02-07T19:41:35.831Z,30.95
2023-02-07T19:46:39.006Z,26.15
2023-02-07T19:51:42.055Z,20.70
2023-02-07T19:56:44.851Z,19.52
2023-02-07T20:01:48.055Z,22.55
2023-02-07T20:06:50.976Z,27.17
2023-02-07T20:11:55.278Z,20.45
2023-02-07T20:16:58.204Z,49.63
2023-02-07T20:22:01.052Z,18.05
2023-02-07T20:27:04.447Z,22.20
2023-02-07T20:32:07.215Z,18.27
2023-02-07T20:37:11.661Z,28.73
2023-02-07T20:42:14.392Z,25.73
2023-02-07T20:47:17.366Z,17.35
2023-02-07T20:52:20.163Z,29.20
2023-02-07T20:57:23.028Z,19.40
2023-02-07T21:02:25.844Z,25.92
2023-02-07T21:07:28.781Z,17.63
2023-02-07T21:12:32.425Z,21.00
2023-02-07T21:17:37.028Z,29.15
2023-02-07T21:22:40.084Z,24.92
2023-02-07T21:27:42.914Z,24.88
2023-02-07T21:32:47.174Z,18.08
2023-02-07T21:37:50.293Z,13.07
2023-02-07T21:42:53.263Z,21.45
2023-02-07T21:47:56.108Z,21.08
2023-02-07T21:52:59.086Z,18.73
2023-02-07T21:58:02.010Z,26.33
2023-02-07T22:03:04.870Z,24.60
2023-02-07T22:08:08.445Z,18.17
2023-02-07T22:13:12.853Z,34.70
2023-02-07T22:18:16.649Z,35.47
2023-02-07T22:23:19.519Z,24.17
2023-02-07T22:28:22.364Z,28.60
2023-02-07T22:33:25.890Z,33.60
2023-02-07T22:38:28.948Z,29.70
2023-02-07T22:43:32.261Z,32.42
2023-02-07T22:48:36.072Z,26.67
2023-02-07T22:53:39.607Z,30.25
2023-02-07T22:58:42.581Z,24.27
2023-02-07T23:03:45.454Z,27.40
2023-02-07T23:08:48.472Z,19.35
2023-02-07T23:13:52.709Z,23.92
2023-02-07T23:18:57.999Z,23.20
2023-02-07T23:24:01.174Z,25.88
2023-02-07T23:29:05.380Z,28.65
2023-02-07T23:34:09.778Z,24.63
2023-02-07T23:39:12.770Z,24.13
2023-02-07T23:44:16.858Z,25.08
2023-02-07T23:49:19.739Z,15.85
2023-02-07T23:54:22.664Z,19.73
2023-02-07T23:59:25.505Z,13.85
